createdAt,value
2022-08-29T00:00:09.829Z,8.10
2022-08-29T00:02:50.578Z,8.87
2022-08-29T00:05:24.971Z,9.80
2022-08-29T00:07:53.549Z,9.40
2022-08-29T00:10:22.610Z,8.30
2022-08-29T00:12:51.295Z,9.90
2022-08-29T00:15:19.895Z,8.13
2022-08-29T00:17:50.613Z,9.23
2022-08-29T00:20:29.094Z,9.20
2022-08-29T00:23:02.912Z,8.73
2022-08-29T00:25:31.584Z,9.20
2022-08-29T00:28:00.407Z,9.67
2022-08-29T00:30:28.554Z,8.10
2022-08-29T00:32:58.297Z,8.67
2022-08-29T00:35:29.252Z,8.33
2022-08-29T00:37:59.791Z,8.43
2022-08-29T00:40:31.790Z,7.67
2022-08-29T00:43:00.754Z,7.33
2022-08-29T00:45:29.420Z,7.10
2022-08-29T00:48:02.315Z,8.00
2022-08-29T00:50:37.749Z,6.83
2022-08-29T00:53:10.116Z,6.57
2022-08-29T00:55:40.166Z,7.23
2022-08-29T00:58:17.812Z,6.43
2022-08-29T01:00:47.779Z,7.80
2022-08-29T01:03:17.674Z,7.37
2022-08-29T01:05:46.229Z,6.93
2022-08-29T01:08:14.706Z,7.13
2022-08-29T01:11:00.915Z,6.73
2022-08-29T01:13:33.895Z,6.30
2022-08-29T01:16:03.533Z,6.37
2022-08-29T01:18:35.831Z,5.20
2022-08-29T01:21:14.323Z,6.10
2022-08-29T01:23:50.113Z,6.53
2022-08-29T01:26:20.082Z,5.77
2022-08-29T01:28:51.227Z,5.47
2022-08-29T01:31:42.206Z,5.97
2022-08-29T01:34:12.032Z,5.53
2022-08-29T01:36:47.183Z,5.53
2022-08-29T01:39:15.958Z,4.80
2022-08-29T01:41:45.374Z,5.47
2022-08-29T01:44:15.938Z,4.97
2022-08-29T01:46:43.875Z,4.70
2022-08-29T01:49:14.127Z,4.67
2022-08-29T01:51:43.038Z,4.33
2022-08-29T01:54:12.613Z,3.90
2022-08-29T01:56:45.175Z,4.43
2022-08-29T01:59:18.524Z,4.93
2022-08-29T02:01:51.015Z,4.47
2022-08-29T02:04:19.259Z,3.63
2022-08-29T02:06:47.911Z,4.33
2022-08-29T02:09:15.908Z,4.90
2022-08-29T02:11:46.852Z,3.83
2022-08-29T02:14:16.263Z,4.67
2022-08-29T02:16:48.885Z,4.97
2022-08-29T02:19:17.574Z,4.53
2022-08-29T02:21:46.145Z,4.70
2022-08-29T02:24:25.541Z,4.30
2022-08-29T02:26:55.684Z,4.57
2022-08-29T02:29:26.385Z,4.80
2022-08-29T02:32:07.459Z,4.20
2022-08-29T02:34:36.225Z,5.20
2022-08-29T02:37:06.010Z,5.63
2022-08-29T02:39:34.339Z,5.53
2022-08-29T02:42:02.967Z,5.83
2022-08-29T02:44:32.548Z,5.07
2022-08-29T02:47:00.915Z,5.67
2022-08-29T02:49:30.350Z,4.80
2022-08-29T02:51:58.887Z,4.63
2022-08-29T02:54:27.034Z,4.70
2022-08-29T02:56:55.421Z,4.07
2022-08-29T02:59:23.408Z,4.40
2022-08-29T03:01:54.006Z,4.73
2022-08-29T03:04:22.027Z,4.90
2022-08-29T03:06:50.742Z,4.47
2022-08-29T03:09:18.715Z,4.80
2022-08-29T03:11:47.055Z,4.60
2022-08-29T03:14:16.097Z,5.20
2022-08-29T03:16:44.526Z,4.30
2022-08-29T03:19:13.880Z,5.17
2022-08-29T03:21:42.569Z,4.90
2022-08-29T03:24:10.514Z,5.30
2022-08-29T03:26:38.781Z,5.63
2022-08-29T03:29:06.785Z,5.23
2022-08-29T03:31:35.976Z,5.87
2022-08-29T03:34:04.637Z,4.70
2022-08-29T03:36:34.412Z,4.10
2022-08-29T03:39:02.853Z,4.70
2022-08-29T03:41:31.921Z,5.47
2022-08-29T03:44:00.247Z,5.67
2022-08-29T03:46:29.318Z,5.20
2022-08-29T03:48:57.249Z,5.20
2022-08-29T03:51:28.683Z,5.57
2022-08-29T03:53:59.278Z,4.60
2022-08-29T03:56:27.845Z,4.30
2022-08-29T03:58:55.823Z,5.27
2022-08-29T04:01:26.908Z,5.30
2022-08-29T04:03:55.003Z,4.97
2022-08-29T04:06:23.980Z,5.23
2022-08-29T04:08:53.220Z,5.80
2022-08-29T04:11:25.157Z,5.67
2022-08-29T04:13:54.076Z,6.67
2022-08-29T04:16:24.994Z,5.03
2022-08-29T04:18:58.335Z,5.07
2022-08-29T04:21:27.344Z,5.73
2022-08-29T04:23:55.373Z,6.03
2022-08-29T04:26:36.999Z,6.30
2022-08-29T04:29:06.331Z,5.97
2022-08-29T04:31:34.362Z,5.80
2022-08-29T04:34:02.457Z,5.50
2022-08-29T04:36:31.044Z,5.73
2022-08-29T04:38:58.935Z,6.50
2022-08-29T04:41:28.663Z,6.80
2022-08-29T04:43:56.641Z,7.97
2022-08-29T04:46:25.057Z,6.27
2022-08-29T04:48:53.444Z,7.50
2022-08-29T04:51:22.406Z,7.60
2022-08-29T04:53:52.242Z,6.97
2022-08-29T04:56:22.171Z,5.20
2022-08-29T04:58:52.190Z,6.03
2022-08-29T05:01:23.409Z,5.53
2022-08-29T05:03:53.170Z,7.00
2022-08-29T05:06:23.148Z,6.17
2022-08-29T05:08:59.313Z,5.60
2022-08-29T05:11:30.172Z,5.87
2022-08-29T05:14:01.561Z,5.23
2022-08-29T05:16:30.992Z,5.87
2022-08-29T05:19:00.542Z,5.07
2022-08-29T05:21:35.576Z,5.50
2022-08-29T05:24:05.773Z,5.07
2022-08-29T05:26:37.251Z,5.47
2022-08-29T05:29:10.897Z,5.23
2022-08-29T05:31:41.142Z,4.23
2022-08-29T05:34:32.047Z,4.40
2022-08-29T05:36:57.960Z,4.77
2022-08-29T05:39:25.924Z,3.63
2022-08-29T05:41:56.401Z,4.17
2022-08-29T05:44:26.273Z,4.43
2022-08-29T05:46:56.669Z,4.00
2022-08-29T05:49:25.692Z,3.77
2022-08-29T05:51:54.435Z,4.50
2022-08-29T05:54:25.540Z,5.07
2022-08-29T05:56:58.237Z,3.40
2022-08-29T05:59:27.992Z,3.60
2022-08-29T06:01:55.864Z,3.40
2022-08-29T06:04:24.153Z,3.60
2022-08-29T06:06:52.094Z,3.53
2022-08-29T06:09:20.426Z,3.67
2022-08-29T06:11:50.839Z,3.43
2022-08-29T06:14:19.353Z,3.43
2022-08-29T06:16:48.652Z,3.73
2022-08-29T06:19:17.042Z,3.13
2022-08-29T06:21:45.011Z,3.47
2022-08-29T06:24:13.351Z,4.33
2022-08-29T06:26:41.366Z,3.10
2022-08-29T06:29:11.326Z,3.20
2022-08-29T06:31:40.336Z,4.03
2022-08-29T06:34:11.139Z,3.43
2022-08-29T06:36:39.823Z,3.43
2022-08-29T06:39:11.148Z,3.90
2022-08-29T06:41:41.287Z,3.03
2022-08-29T06:44:10.751Z,3.57
2022-08-29T06:46:41.381Z,3.60
2022-08-29T06:49:13.751Z,3.70
2022-08-29T06:51:44.596Z,3.37
2022-08-29T06:54:14.069Z,3.50
2022-08-29T06:56:42.399Z,2.83
2022-08-29T06:59:11.599Z,3.33
2022-08-29T07:01:41.537Z,3.27
2022-08-29T07:04:14.470Z,2.90
2022-08-29T07:06:43.362Z,3.17
2022-08-29T07:09:12.403Z,3.13
2022-08-29T07:11:42.024Z,2.93
2022-08-29T07:14:10.742Z,3.23
2022-08-29T07:16:39.228Z,2.50
2022-08-29T07:19:09.213Z,3.00
2022-08-29T07:21:39.221Z,2.50
2022-08-29T07:24:08.292Z,3.10
2022-08-29T07:26:38.937Z,2.97
2022-08-29T07:29:09.973Z,2.43
2022-08-29T07:31:39.050Z,2.87
2022-08-29T07:34:07.724Z,2.60
2022-08-29T07:36:38.592Z,2.77
2022-08-29T07:39:09.568Z,3.20
2022-08-29T07:41:38.901Z,3.50
2022-08-29T07:44:07.345Z,2.80
2022-08-29T07:46:35.256Z,2.40
2022-08-29T07:49:03.928Z,2.43
2022-08-29T07:51:32.177Z,3.10
2022-08-29T07:54:01.806Z,2.60
2022-08-29T07:56:38.006Z,3.00
2022-08-29T07:59:06.814Z,2.67
2022-08-29T08:01:35.682Z,3.27
2022-08-29T08:04:04.133Z,2.97
2022-08-29T08:06:32.302Z,2.80
2022-08-29T08:09:04.725Z,3.10
2022-08-29T08:11:33.057Z,3.10
2022-08-29T08:14:01.166Z,2.77
2022-08-29T08:16:29.957Z,2.80
2022-08-29T08:18:59.140Z,3.60
2022-08-29T08:21:27.978Z,3.13
2022-08-29T08:23:56.490Z,2.43
2022-08-29T08:26:26.564Z,2.70
2022-08-29T08:28:55.174Z,3.20
2022-08-29T08:31:23.557Z,2.90
2022-08-29T08:33:52.360Z,3.17
2022-08-29T08:36:23.116Z,2.83
2022-08-29T08:38:51.777Z,3.20
2022-08-29T08:41:42.095Z,2.70
2022-08-29T08:44:25.218Z,2.50
2022-08-29T08:46:56.121Z,2.10
2022-08-29T08:49:32.492Z,3.13
2022-08-29T08:52:06.643Z,3.00
2022-08-29T08:54:42.231Z,2.93
2022-08-29T08:57:14.225Z,2.77
2022-08-29T08:59:46.382Z,2.63
2022-08-29T09:02:35.441Z,2.43
2022-08-29T09:05:17.739Z,2.73
2022-08-29T09:07:55.071Z,3.07
2022-08-29T09:10:33.423Z,2.40
2022-08-29T09:13:19.126Z,2.37
2022-08-29T09:15:49.797Z,2.60
2022-08-29T09:18:28.644Z,3.27
2022-08-29T09:20:57.472Z,2.83
2022-08-29T09:23:31.475Z,2.87
2022-08-29T09:26:00.602Z,3.20
2022-08-29T09:28:30.152Z,2.73
2022-08-29T09:31:20.158Z,3.20
2022-08-29T09:33:51.502Z,2.67
2022-08-29T09:36:47.750Z,2.57
2022-08-29T09:39:22.243Z,3.30
2022-08-29T09:41:53.764Z,2.73
2022-08-29T09:44:27.748Z,2.70
2022-08-29T09:47:07.519Z,2.43
2022-08-29T09:49:37.337Z,3.50
2022-08-29T09:52:15.354Z,2.90
2022-08-29T09:54:44.276Z,3.10
2022-08-29T09:57:22.875Z,2.80
2022-08-29T10:00:11.690Z,3.00
2022-08-29T10:02:47.701Z,2.83
2022-08-29T10:05:41.522Z,3.20
2022-08-29T10:08:27.920Z,2.67
2022-08-29T10:10:59.600Z,2.67
2022-08-29T10:13:35.047Z,3.40
2022-08-29T10:16:15.037Z,2.80
2022-08-29T10:18:48.664Z,3.33
2022-08-29T10:21:26.578Z,3.77
2022-08-29T10:24:19.530Z,2.40
2022-08-29T10:26:57.577Z,4.03
2022-08-29T10:29:40.576Z,3.00
2022-08-29T10:32:18.866Z,2.30
2022-08-29T10:35:01.083Z,2.50
2022-08-29T10:37:38.125Z,3.40
2022-08-29T10:40:10.167Z,2.90
2022-08-29T10:42:47.043Z,3.57
2022-08-29T10:45:17.672Z,2.90
2022-08-29T10:47:54.535Z,2.93
2022-08-29T10:50:44.034Z,2.30
2022-08-29T10:53:20.338Z,3.30
2022-08-29T10:55:56.732Z,3.50
2022-08-29T10:58:40.831Z,3.00
2022-08-29T11:01:15.908Z,3.40
2022-08-29T11:03:52.981Z,3.70
2022-08-29T11:06:26.451Z,3.67
2022-08-29T11:09:01.452Z,2.87
2022-08-29T11:11:32.171Z,2.90
2022-08-29T11:14:10.080Z,3.10
2022-08-29T11:16:47.415Z,2.73
2022-08-29T11:19:25.223Z,2.87
2022-08-29T11:21:57.788Z,2.10
2022-08-29T11:24:32.892Z,3.20
2022-08-29T11:27:10.790Z,3.43
2022-08-29T11:29:46.834Z,2.50
2022-08-29T11:32:26.333Z,2.83
2022-08-29T11:35:08.269Z,3.30
2022-08-29T11:38:01.634Z,3.23
2022-08-29T11:40:47.662Z,3.10
2022-08-29T11:43:20.753Z,3.53
2022-08-29T11:45:58.741Z,3.37
2022-08-29T11:48:35.970Z,3.00
2022-08-29T11:51:30.391Z,3.40
2022-08-29T11:54:37.421Z,3.17
2022-08-29T11:57:53.721Z,3.03
2022-08-29T12:00:35.123Z,3.03
2022-08-29T12:03:07.302Z,3.83
2022-08-29T12:05:54.096Z,3.30
2022-08-29T12:08:37.753Z,3.43
2022-08-29T12:11:07.491Z,2.80
2022-08-29T12:14:04.896Z,2.57
2022-08-29T12:16:51.691Z,3.13
2022-08-29T12:19:50.662Z,3.30
2022-08-29T12:22:49.348Z,3.17
2022-08-29T12:25:45.341Z,3.13
2022-08-29T12:28:36.027Z,3.00
2022-08-29T12:31:27.581Z,2.93
2022-08-29T12:34:11.615Z,3.30
2022-08-29T12:36:55.955Z,2.87
2022-08-29T12:39:36.758Z,3.17
2022-08-29T12:42:23.156Z,3.57
2022-08-29T12:45:00.693Z,3.10
2022-08-29T12:47:33.859Z,3.70
2022-08-29T12:50:08.022Z,3.10
2022-08-29T12:52:39.430Z,2.90
2022-08-29T12:55:23.961Z,2.90
2022-08-29T12:57:59.129Z,3.13
2022-08-29T13:00:29.437Z,3.20
2022-08-29T13:03:01.262Z,3.10
2022-08-29T13:05:31.156Z,3.20
2022-08-29T13:08:03.091Z,3.77
2022-08-29T13:10:31.207Z,2.70
2022-08-29T13:13:09.260Z,2.60
2022-08-29T13:15:37.202Z,2.50
2022-08-29T13:18:06.409Z,2.97
2022-08-29T13:20:43.118Z,3.40
2022-08-29T13:23:17.440Z,3.53
2022-08-29T13:25:48.403Z,3.47
2022-08-29T13:28:22.971Z,3.57
2022-08-29T13:31:10.449Z,2.60
2022-08-29T13:33:40.259Z,3.33
2022-08-29T13:36:32.497Z,3.33
2022-08-29T13:39:26.565Z,2.33
2022-08-29T13:42:23.134Z,2.77
2022-08-29T13:45:06.114Z,2.70
2022-08-29T13:47:41.317Z,2.30
2022-08-29T13:50:13.164Z,2.30
2022-08-29T13:52:41.165Z,3.00
2022-08-29T13:55:11.357Z,3.50
2022-08-29T13:57:41.432Z,2.90
2022-08-29T14:00:14.105Z,2.80
2022-08-29T14:02:45.181Z,2.83
2022-08-29T14:05:15.163Z,3.30
2022-08-29T14:07:44.995Z,3.10
2022-08-29T14:10:15.595Z,2.70
2022-08-29T14:12:43.572Z,3.23
2022-08-29T14:15:18.056Z,3.33
2022-08-29T14:17:48.067Z,3.00
2022-08-29T14:20:19.220Z,2.70
2022-08-29T14:22:48.079Z,3.03
2022-08-29T14:25:17.871Z,3.63
2022-08-29T14:27:47.394Z,3.03
2022-08-29T14:30:20.403Z,2.60
2022-08-29T14:32:48.421Z,3.30
2022-08-29T14:35:26.680Z,2.97
2022-08-29T14:38:00.263Z,3.53
2022-08-29T14:40:29.402Z,3.53
2022-08-29T14:42:57.678Z,3.20
2022-08-29T14:45:27.922Z,3.77
2022-08-29T14:47:56.208Z,3.20
2022-08-29T14:50:25.368Z,3.20
2022-08-29T14:52:53.684Z,2.70
2022-08-29T14:55:22.924Z,3.10
2022-08-29T14:57:50.994Z,2.87
2022-08-29T15:00:23.427Z,2.80
2022-08-29T15:02:52.848Z,2.60
2022-08-29T15:05:21.821Z,3.33
2022-08-29T15:07:49.725Z,2.90
2022-08-29T15:10:21.816Z,3.00
2022-08-29T15:12:49.750Z,2.77
2022-08-29T15:15:18.605Z,3.60
2022-08-29T15:17:47.026Z,3.17
2022-08-29T15:20:36.152Z,3.13
2022-08-29T15:23:04.458Z,3.40
2022-08-29T15:25:33.064Z,2.63
2022-08-29T15:28:00.945Z,2.93
2022-08-29T15:30:29.259Z,3.30
2022-08-29T15:32:57.300Z,3.03
2022-08-29T15:35:27.286Z,2.43
2022-08-29T15:37:55.434Z,2.80
2022-08-29T15:40:23.823Z,3.43
2022-08-29T15:42:52.102Z,4.03
2022-08-29T15:45:22.474Z,2.90
2022-08-29T15:47:50.914Z,3.17
2022-08-29T15:50:22.598Z,4.10
2022-08-29T15:52:52.264Z,3.10
2022-08-29T15:55:20.798Z,3.37
2022-08-29T15:57:51.763Z,2.67
2022-08-29T16:00:30.445Z,2.90
2022-08-29T16:03:00.176Z,3.50
2022-08-29T16:05:28.580Z,2.53
2022-08-29T16:07:58.109Z,3.27
2022-08-29T16:10:26.464Z,3.23
2022-08-29T16:12:54.820Z,3.17
2022-08-29T16:15:23.165Z,3.57
2022-08-29T16:17:51.370Z,3.83
2022-08-29T16:20:19.514Z,3.70
2022-08-29T16:22:47.462Z,3.80
2022-08-29T16:25:17.959Z,3.57
2022-08-29T16:27:46.096Z,3.60
2022-08-29T16:30:14.408Z,5.10
2022-08-29T16:32:42.752Z,2.90
2022-08-29T16:35:11.973Z,6.37
2022-08-29T16:37:40.707Z,8.40
2022-08-29T16:40:10.199Z,5.67
2022-08-29T16:42:40.001Z,5.60
2022-08-29T16:45:09.823Z,11.47
2022-08-29T16:47:38.613Z,6.70
2022-08-29T16:50:08.538Z,5.07
2022-08-29T16:52:36.892Z,11.40
2022-08-29T16:55:06.510Z,7.60
2022-08-29T16:57:35.342Z,5.70
2022-08-29T17:00:07.285Z,4.23
2022-08-29T17:02:35.620Z,3.73
2022-08-29T17:05:04.751Z,3.80
2022-08-29T17:07:34.641Z,3.10
2022-08-29T17:10:02.924Z,3.70
2022-08-29T17:12:30.502Z,3.23
2022-08-29T17:14:57.441Z,5.37
2022-08-29T17:17:27.281Z,4.33
2022-08-29T17:19:55.145Z,5.37
2022-08-29T17:22:23.554Z,3.67
2022-08-29T17:24:51.476Z,4.43
2022-08-29T17:27:21.903Z,2.80
2022-08-29T17:29:50.351Z,3.27
2022-08-29T17:32:19.332Z,3.13
2022-08-29T17:34:49.110Z,3.93
2022-08-29T17:37:17.668Z,3.40
2022-08-29T17:39:45.605Z,2.80
2022-08-29T17:42:14.399Z,3.53
2022-08-29T17:44:42.311Z,3.37
2022-08-29T17:47:11.414Z,3.50
2022-08-29T17:49:39.364Z,3.30
2022-08-29T17:52:08.752Z,3.17
2022-08-29T17:54:36.774Z,3.70
2022-08-29T17:57:05.713Z,4.53
2022-08-29T17:59:36.796Z,3.80
2022-08-29T18:02:05.591Z,4.07
2022-08-29T18:04:33.672Z,4.13
2022-08-29T18:07:01.975Z,6.57
2022-08-29T18:09:31.559Z,4.40
2022-08-29T18:11:59.873Z,5.67
2022-08-29T18:14:28.487Z,3.90
2022-08-29T18:16:57.772Z,3.47
2022-08-29T18:19:27.435Z,4.00
2022-08-29T18:21:55.699Z,3.63
2022-08-29T18:24:24.012Z,4.60
2022-08-29T18:26:53.856Z,4.00
2022-08-29T18:29:21.942Z,5.30
2022-08-29T18:31:50.668Z,4.07
2022-08-29T18:34:19.465Z,4.50
2022-08-29T18:36:48.967Z,4.80
2022-08-29T18:39:18.937Z,4.07
2022-08-29T18:41:47.924Z,3.50
2022-08-29T18:44:17.255Z,3.80
2022-08-29T18:46:48.380Z,4.07
2022-08-29T18:49:17.209Z,3.93
2022-08-29T18:51:45.104Z,3.87
2022-08-29T18:54:17.450Z,3.60
2022-08-29T18:56:47.288Z,2.63
2022-08-29T18:59:15.377Z,4.20
2022-08-29T19:01:44.771Z,3.90
2022-08-29T19:04:12.876Z,4.27
2022-08-29T19:06:40.904Z,3.90
2022-08-29T19:09:08.851Z,4.30
2022-08-29T19:11:37.149Z,3.57
2022-08-29T19:14:05.237Z,3.17
2022-08-29T19:16:33.555Z,3.80
2022-08-29T19:19:03.038Z,4.80
2022-08-29T19:21:30.007Z,4.10
2022-08-29T19:23:58.277Z,3.80
2022-08-29T19:26:29.629Z,4.57
2022-08-29T19:28:59.803Z,3.67
2022-08-29T19:31:29.235Z,4.00
2022-08-29T19:33:58.692Z,3.50
2022-08-29T19:36:28.438Z,4.20
2022-08-29T19:38:56.483Z,3.80
2022-08-29T19:44:13.600Z,4.00
2022-08-29T19:46:48.656Z,4.23
2022-08-29T19:49:17.662Z,3.90
2022-08-29T19:51:47.079Z,4.70
2022-08-29T19:54:16.717Z,3.77
2022-08-29T19:56:46.637Z,3.53
2022-08-29T19:59:15.527Z,4.53
2022-08-29T20:01:45.005Z,3.73
2022-08-29T20:04:13.846Z,4.67
2022-08-29T20:06:42.048Z,4.20
2022-08-29T20:09:13.957Z,4.63
2022-08-29T20:11:43.928Z,3.90
2022-08-29T20:14:14.055Z,3.70
2022-08-29T20:16:42.904Z,4.10
2022-08-29T20:19:12.266Z,3.90
2022-08-29T20:21:41.876Z,5.00
2022-08-29T20:24:15.769Z,4.40
2022-08-29T20:26:47.964Z,4.30
2022-08-29T20:29:17.376Z,5.40
2022-08-29T20:31:45.797Z,4.53
2022-08-29T20:34:13.873Z,4.23
2022-08-29T20:37:00.598Z,3.40
2022-08-29T20:39:28.972Z,4.13
2022-08-29T20:42:00.298Z,4.50
2022-08-29T20:44:33.984Z,4.97
2022-08-29T20:47:02.954Z,5.37
2022-08-29T20:49:31.317Z,5.40
2022-08-29T20:51:59.340Z,4.90
2022-08-29T20:54:27.848Z,5.53
2022-08-29T20:56:56.581Z,5.33
2022-08-29T20:59:27.010Z,5.40
2022-08-29T21:01:56.375Z,4.97
2022-08-29T21:04:42.456Z,5.80
2022-08-29T21:07:12.219Z,5.33
2022-08-29T21:09:43.700Z,5.90
2022-08-29T21:12:13.266Z,5.00
2022-08-29T21:14:43.034Z,4.60
2022-08-29T21:17:12.153Z,5.80
2022-08-29T21:19:41.840Z,5.23
2022-08-29T21:22:11.657Z,4.40
2022-08-29T21:24:40.604Z,5.30
2022-08-29T21:27:08.509Z,6.47
2022-08-29T21:29:36.891Z,5.57
2022-08-29T21:32:06.468Z,5.80
2022-08-29T21:34:34.440Z,4.90
2022-08-29T21:37:02.318Z,5.10
2022-08-29T21:39:30.541Z,5.23
2022-08-29T21:42:00.974Z,6.57
2022-08-29T21:44:30.992Z,6.30
2022-08-29T21:46:59.081Z,6.43
2022-08-29T21:49:30.705Z,5.40
2022-08-29T21:51:58.595Z,5.70
2022-08-29T21:54:27.121Z,6.00
2022-08-29T21:56:54.991Z,5.20
2022-08-29T21:59:23.367Z,5.23
2022-08-29T22:01:54.485Z,6.03
2022-08-29T22:04:28.896Z,6.10
2022-08-29T22:06:59.871Z,6.00
2022-08-29T22:09:29.231Z,5.13
2022-08-29T22:11:57.308Z,6.47
2022-08-29T22:14:45.802Z,6.23
2022-08-29T22:17:13.497Z,5.13
2022-08-29T22:19:42.242Z,7.20
2022-08-29T22:22:11.800Z,7.30
2022-08-29T22:24:40.165Z,6.17
2022-08-29T22:27:08.315Z,5.67
2022-08-29T22:29:37.782Z,6.83
2022-08-29T22:32:06.123Z,7.10
2022-08-29T22:34:34.475Z,7.40
2022-08-29T22:37:02.413Z,6.93
2022-08-29T22:39:32.182Z,7.00
2022-08-29T22:42:00.123Z,5.93
2022-08-29T22:45:02.734Z,5.13
2022-08-29T22:47:18.003Z,6.87
2022-08-29T22:49:46.646Z,6.70
2022-08-29T22:52:14.666Z,5.97
2022-08-29T22:54:44.812Z,6.17
2022-08-29T22:57:14.816Z,6.70
2022-08-29T22:59:43.696Z,6.17
2022-08-29T23:02:13.405Z,7.27
2022-08-29T23:04:41.746Z,6.10
2022-08-29T23:07:11.763Z,6.30
2022-08-29T23:09:41.172Z,5.50
2022-08-29T23:12:11.809Z,6.90
2022-08-29T23:14:41.473Z,7.93
2022-08-29T23:17:10.448Z,6.63
2022-08-29T23:19:41.182Z,6.70
2022-08-29T23:22:09.979Z,6.00
2022-08-29T23:24:39.499Z,7.33
2022-08-29T23:27:10.852Z,6.87
2022-08-29T23:29:42.049Z,6.30
2022-08-29T23:32:10.158Z,6.33
2022-08-29T23:34:38.482Z,6.90
2022-08-29T23:37:06.539Z,6.03
2022-08-29T23:39:34.908Z,6.40
2022-08-29T23:42:03.501Z,5.40
2022-08-29T23:44:33.190Z,5.87
2022-08-29T23:47:01.092Z,6.83
2022-08-29T23:49:29.440Z,6.57
2022-08-29T23:51:57.404Z,6.50
2022-08-29T23:54:27.860Z,6.00
2022-08-29T23:56:55.800Z,6.97
2022-08-29T23:59:41.402Z,6.23
